Time;durP1;ratioP1;P1;durP2;ratioP2;P2;SDS_P1;SDS_P2;PMS_P1;PMS_P2;Temp;Humidity;BMP_temperature;BMP_pressure;BME280_temperature;BME280_humidity;BME280_pressure;Samples;Min_cycle;Max_cycle;Signal;HPM_P1;HPM_P2
2021/08/21 00:02:04;;;;;;;75.13;43.80;;;;;;;17.20;81.30;101971.97;5084868;28;20217;-74
2021/08/21 00:04:30;;;;;;;60.90;38.40;;;;;;;17.53;80.38;101974.78;5084567;28;20207;-74
2021/08/21 00:06:57;;;;;;;76.87;42.40;;;;;;;17.92;78.16;101965.00;5083824;28;20239;-74
2021/08/21 00:09:23;;;;;;;72.17;39.80;;;;;;;17.61;79.46;101974.38;5082783;28;20280;-74
2021/08/21 00:11:50;;;;;;;68.97;40.07;;;;;;;17.49;80.25;101978.19;5082506;28;20218;-74
2021/08/21 00:14:16;;;;;;;66.67;40.03;;;;;;;17.48;79.81;101979.25;5082339;28;20225;-74
2021/08/21 00:16:44;;;;;;;77.63;42.87;;;;;;;17.34;80.43;101976.84;5081683;28;20283;-74
2021/08/21 00:19:10;;;;;;;80.17;43.50;;;;;;;16.83;82.82;101971.44;5082851;28;20548;-74
2021/08/21 00:21:37;;;;;;;78.73;42.73;;;;;;;17.29;80.70;101974.06;5083785;28;20287;-74
2021/08/21 00:24:03;;;;;;;78.83;43.23;;;;;;;17.09;81.21;101973.63;5083283;28;20227;-74
2021/08/21 00:26:29;;;;;;;86.23;42.93;;;;;;;16.74;82.33;101970.97;5083133;28;20266;-74
2021/08/21 00:28:56;;;;;;;83.13;43.67;;;;;;;16.73;82.46;101974.75;5083658;28;20212;-74
2021/08/21 00:31:23;;;;;;;80.10;42.93;;;;;;;16.76;82.54;101974.25;5085364;28;20257;-74
2021/08/21 00:33:51;;;;;;;81.77;44.47;;;;;;;16.71;82.60;101976.84;5083821;28;20641;-74
2021/08/21 00:36:17;;;;;;;76.40;41.73;;;;;;;16.70;83.18;101980.63;5082504;28;20284;-74
2021/08/21 00:38:43;;;;;;;79.83;41.80;;;;;;;17.15;80.69;101975.41;5084803;28;20645;-74
2021/08/21 00:41:10;;;;;;;74.47;40.60;;;;;;;17.44;79.63;101976.22;5080889;28;20213;-74
2021/08/21 00:43:37;;;;;;;82.67;42.60;;;;;;;17.39;79.32;101984.22;5084006;28;20278;-74
2021/08/21 00:46:04;;;;;;;81.23;42.17;;;;;;;17.30;79.57;101974.88;5086172;28;20273;-75
2021/08/21 00:48:30;;;;;;;79.53;43.10;;;;;;;17.66;78.05;101976.38;5083252;28;20270;-74
2021/08/21 00:51:01;;;;;;;97.30;47.00;;;;;;;17.74;77.46;101970.59;5086626;28;20220;-74
2021/08/21 00:53:27;;;;;;;95.53;48.40;;;;;;;17.77;77.48;101967.41;5083324;28;20619;-74
2021/08/21 00:55:54;;;;;;;83.10;46.47;;;;;;;17.91;76.98;101968.75;5084338;28;20215;-74
2021/08/21 00:58:21;;;;;;;78.60;45.90;;;;;;;17.96;76.68;101970.72;5083790;28;20706;-74
2021/08/21 01:00:47;;;;;;;88.40;45.70;;;;;;;17.81;76.43;101973.16;5081642;28;20221;-74
2021/08/21 01:03:13;;;;;;;76.17;44.00;;;;;;;17.86;77.14;101971.34;5082262;28;20241;-74
2021/08/21 01:05:40;;;;;;;72.10;41.43;;;;;;;17.94;76.22;101973.66;5083180;28;20220;-74
2021/08/21 01:08:08;;;;;;;81.23;45.27;;;;;;;17.99;75.22;101970.22;5082948;28;20315;-73
2021/08/21 01:10:35;;;;;;;77.63;43.80;;;;;;;17.82;76.05;101970.22;5082805;28;20216;-73
2021/08/21 01:13:01;;;;;;;80.27;44.00;;;;;;;17.75;75.34;101966.00;5084736;28;20525;-73
2021/08/21 01:15:28;;;;;;;75.70;42.67;;;;;;;17.68;74.79;101970.72;5085674;28;20230;-74
2021/08/21 01:17:54;;;;;;;63.23;40.00;;;;;;;17.54;74.95;101970.22;5083278;28;20242;-73
2021/08/21 01:20:22;;;;;;;67.57;39.83;;;;;;;17.53;74.81;101969.38;5083581;28;20209;-73
2021/08/21 01:22:48;;;;;;;62.77;38.73;;;;;;;17.52;74.30;101969.59;5083762;28;20314;-73
2021/08/21 01:25:19;;;;;;;77.50;44.07;;;;;;;17.48;74.23;101960.34;5082325;28;20214;-73
2021/08/21 01:27:47;;;;;;;70.43;38.67;;;;;;;17.46;74.19;101968.69;5080876;28;20305;-73
2021/08/21 01:30:13;;;;;;;71.73;41.00;;;;;;;17.42;74.39;101967.56;5082011;28;20235;-73
2021/08/21 01:32:40;;;;;;;65.00;37.87;;;;;;;17.37;74.68;101967.44;5083611;28;20209;-73
2021/08/21 01:35:08;;;;;;;69.23;42.00;;;;;;;17.41;75.64;101965.91;5080675;28;20210;-73
2021/08/21 01:37:34;;;;;;;72.77;39.83;;;;;;;17.39;75.85;101968.00;5081441;28;20214;-73
2021/08/21 01:40:01;;;;;;;81.07;42.33;;;;;;;17.41;75.40;101967.78;5082434;28;20284;-74
2021/08/21 01:42:27;;;;;;;65.57;38.37;;;;;;;17.34;75.73;101962.53;5083076;28;20239;-74
2021/08/21 01:44:56;;;;;;;68.40;37.50;;;;;;;17.25;75.54;101962.06;5083227;28;20612;-74
2021/08/21 01:47:22;;;;;;;69.47;38.87;;;;;;;17.09;76.89;101964.72;5084212;28;20237;-74
2021/08/21 01:49:53;;;;;;;69.00;40.10;;;;;;;17.19;75.74;101962.22;5081246;28;20665;-74
2021/08/21 01:52:20;;;;;;;63.80;35.50;;;;;;;17.08;76.01;101969.28;5080730;28;20264;-74
2021/08/21 01:54:46;;;;;;;75.23;39.40;;;;;;;16.82;77.77;101967.13;5081537;28;20228;-74
2021/08/21 01:57:13;;;;;;;73.30;39.30;;;;;;;16.80;78.22;101966.53;5081926;28;20206;-74
2021/08/21 01:59:41;;;;;;;72.10;38.83;;;;;;;16.83;77.39;101963.34;5081906;28;20272;-74
2021/08/21 02:02:11;;;;;;;79.97;38.13;;;;;;;16.95;76.19;101964.97;5079394;28;20766;-74
2021/08/21 02:04:37;;;;;;;62.20;35.47;;;;;;;17.08;75.83;101963.06;5083688;28;20214;-74
2021/08/21 02:07:03;;;;;;;58.20;34.07;;;;;;;17.20;75.17;101959.28;5081787;28;20714;-74
2021/08/21 02:09:30;;;;;;;92.40;40.40;;;;;;;16.84;76.74;101965.81;5081779;28;20237;-74
2021/08/21 02:11:58;;;;;;;72.07;34.93;;;;;;;16.73;77.42;101967.47;5081712;28;20214;-74
2021/08/21 02:14:25;;;;;;;71.67;37.07;;;;;;;16.18;79.55;101972.34;5081115;28;20448;-74
2021/08/21 02:16:53;;;;;;;87.93;37.93;;;;;;;16.11;80.32;101971.63;5080810;28;20205;-73
2021/08/21 02:19:22;;;;;;;184.37;47.40;;;;;;;16.46;78.56;101963.56;5081497;28;20213;-73
2021/08/21 02:21:49;;;;;;;285.57;58.80;;;;;;;16.55;78.57;101967.56;5081724;28;20658;-73
2021/08/21 02:24:16;;;;;;;263.93;54.47;;;;;;;16.67;78.04;101967.56;5084130;28;20303;-73
2021/08/21 02:26:43;;;;;;;180.23;46.77;;;;;;;16.59;78.61;101965.22;5084798;28;20214;-73
2021/08/21 02:29:10;;;;;;;150.07;41.37;;;;;;;16.86;77.28;101971.78;5086291;28;20275;-73
2021/08/21 02:31:36;;;;;;;285.87;57.57;;;;;;;16.79;77.77;101970.28;5085199;28;20579;-73
2021/08/21 02:34:03;;;;;;;182.67;41.40;;;;;;;16.83;77.75;101972.28;5085326;28;20215;-73
2021/08/21 02:36:31;;;;;;;203.90;48.03;;;;;;;16.63;78.80;101972.59;5085192;28;20212;-73
2021/08/21 02:38:58;;;;;;;195.10;47.87;;;;;;;16.77;78.17;101974.06;5085488;28;20290;-74
2021/08/21 02:41:25;;;;;;;216.17;51.10;;;;;;;16.97;77.12;101972.84;5085807;28;20723;-74
2021/08/21 02:43:52;;;;;;;227.67;50.97;;;;;;;16.84;77.27;101970.38;5085255;28;20210;-73
2021/08/21 02:46:18;;;;;;;262.70;57.20;;;;;;;16.81;77.46;101974.38;5084022;28;20685;-73
2021/08/21 02:48:45;;;;;;;226.93;45.37;;;;;;;16.73;77.38;101972.84;5085287;28;20233;-73
2021/08/21 02:51:11;;;;;;;148.53;45.97;;;;;;;16.52;78.68;101965.34;5086970;28;20261;-72
2021/08/21 02:53:39;;;;;;;383.53;62.17;;;;;;;16.47;78.50;101970.59;5084792;28;20232;-73
2021/08/21 02:56:05;;;;;;;252.13;52.27;;;;;;;16.64;77.96;101976.97;5084557;28;20663;-73
2021/08/21 02:58:32;;;;;;;183.27;50.20;;;;;;;16.71;77.23;101966.06;5083749;28;20213;-73
2021/08/21 03:00:58;;;;;;;231.83;55.73;;;;;;;16.47;77.85;101966.03;5086399;28;20362;-73
2021/08/21 03:03:25;;;;;;;106.57;43.53;;;;;;;16.28;78.54;101966.38;5084638;28;20276;-73
2021/08/21 03:05:51;;;;;;;169.57;50.17;;;;;;;16.31;78.88;101966.75;5085086;28;20606;-73
2021/08/21 03:08:18;;;;;;;121.33;44.77;;;;;;;16.14;78.83;101958.53;5087652;28;20294;-73
2021/08/21 03:10:45;;;;;;;148.97;49.47;;;;;;;15.93;79.60;101966.31;5086992;28;20253;-73
2021/08/21 03:13:12;;;;;;;154.07;48.03;;;;;;;15.75;80.15;101964.50;5083390;28;20560;-73
2021/08/21 03:15:38;;;;;;;146.87;48.53;;;;;;;15.65;80.84;101962.38;5087170;28;20233;-73
2021/08/21 03:18:05;;;;;;;336.90;72.17;;;;;;;15.50;81.75;101959.22;5085847;28;20287;-73
2021/08/21 03:20:31;;;;;;;144.30;50.60;;;;;;;15.40;82.01;101961.66;5084918;28;20205;-73
2021/08/21 03:22:57;;;;;;;137.07;48.20;;;;;;;15.40;81.74;101967.06;5086573;28;20247;-73
2021/08/21 03:25:24;;;;;;;245.07;57.10;;;;;;;15.75;80.92;101961.81;5086586;28;20217;-72
2021/08/21 03:27:51;;;;;;;306.53;70.53;;;;;;;16.08;78.52;101961.31;5085387;28;20235;-72
2021/08/21 03:30:18;;;;;;;425.43;80.37;;;;;;;16.10;78.52;101961.91;5082244;28;20331;-72
2021/08/21 03:32:45;;;;;;;136.33;50.57;;;;;;;16.00;78.70;101964.34;5084409;28;20255;-72
2021/08/21 03:35:12;;;;;;;556.47;88.17;;;;;;;16.30;78.05;101956.19;5084866;28;20221;-72
2021/08/21 03:37:38;;;;;;;352.43;55.20;;;;;;;16.33;77.29;101964.63;5086102;28;20720;-73
2021/08/21 03:40:06;;;;;;;332.90;61.87;;;;;;;16.23;77.07;101961.69;5086672;28;20700;-73
2021/08/21 03:42:32;;;;;;;461.90;71.33;;;;;;;16.10;76.39;101965.41;5085764;28;20234;-73
2021/08/21 03:45:00;;;;;;;352.70;56.37;;;;;;;16.10;75.72;101962.72;5086283;28;20734;-73
2021/08/21 03:47:27;;;;;;;140.27;43.40;;;;;;;15.65;78.04;101962.38;5083170;28;20721;-72
2021/08/21 03:49:53;;;;;;;220.10;49.37;;;;;;;15.57;78.14;101960.78;5085602;28;20243;-72
2021/08/21 03:52:19;;;;;;;96.07;37.60;;;;;;;15.57;78.34;101968.06;5083953;28;20210;-73
2021/08/21 03:54:46;;;;;;;91.47;38.77;;;;;;;15.75;77.08;101959.97;5084514;28;20226;-73
2021/08/21 03:57:13;;;;;;;92.27;39.40;;;;;;;15.67;77.11;101965.66;5084346;28;20275;-73
2021/08/21 03:59:39;;;;;;;81.03;37.40;;;;;;;15.48;77.91;101972.91;5087358;28;20262;-72
2021/08/21 04:02:07;;;;;;;76.53;34.70;;;;;;;15.42;78.83;101971.16;5087381;28;20655;-72
2021/08/21 04:04:33;;;;;;;67.53;32.97;;;;;;;15.85;76.71;101968.28;5084868;28;20222;-72
2021/08/21 04:07:00;;;;;;;81.97;35.70;;;;;;;15.97;76.50;101960.22;5086233;28;20231;-72
2021/08/21 04:09:26;;;;;;;94.07;39.17;;;;;;;16.03;75.88;101963.91;5084786;28;20233;-72
2021/08/21 04:11:52;;;;;;;68.93;32.07;;;;;;;15.83;77.22;101964.19;5084317;28;20271;-72
2021/08/21 04:14:19;;;;;;;110.60;38.90;;;;;;;15.54;77.93;101968.50;5082385;28;20233;-72
2021/08/21 04:16:45;;;;;;;104.47;38.33;;;;;;;15.61;77.70;101966.56;5082465;28;20217;-72
2021/08/21 04:19:13;;;;;;;99.23;38.73;;;;;;;15.67;77.62;101970.22;5082550;28;20216;-72
2021/08/21 04:21:40;;;;;;;160.33;46.93;;;;;;;15.63;77.13;101966.38;5083218;28;20732;-72
2021/08/21 04:24:07;;;;;;;90.63;35.87;;;;;;;16.18;75.95;101969.66;5082524;28;20340;-72
2021/08/21 04:26:33;;;;;;;120.97;40.00;;;;;;;16.13;75.13;101970.38;5083524;28;20266;-72
2021/08/21 04:28:59;;;;;;;75.17;34.00;;;;;;;16.00;76.07;101970.53;5082759;28;20323;-72
2021/08/21 04:31:26;;;;;;;88.18;42.85;;;;;;;16.03;75.95;101969.28;5086085;28;20486;-78
2021/08/21 04:33:52;;;;;;;112.47;41.80;;;;;;;15.91;76.92;101965.75;5085717;28;20205;-78
2021/08/21 04:36:20;;;;;;;104.73;40.53;;;;;;;15.89;77.24;101971.38;5084191;28;20221;-77
2021/08/21 04:38:47;;;;;;;64.47;32.33;;;;;;;16.09;76.70;101963.78;5084349;28;20272;-77
2021/08/21 04:41:13;;;;;;;94.30;38.77;;;;;;;16.06;77.21;101966.13;5081400;28;20639;-77
2021/08/21 04:43:40;;;;;;;73.83;36.13;;;;;;;16.28;76.59;101955.59;5083650;28;20232;-77
2021/08/21 04:46:06;;;;;;;65.63;35.20;;;;;;;16.45;76.19;101964.63;5080118;28;20208;-77
2021/08/21 04:48:33;;;;;;;56.80;31.73;;;;;;;16.54;76.00;101960.53;5083208;28;20237;-77
2021/08/21 04:50:59;;;;;;;61.90;32.90;;;;;;;16.72;75.77;101965.00;5082178;28;20263;-78
2021/08/21 04:53:27;;;;;;;68.77;35.77;;;;;;;16.80;75.44;101964.66;5082256;28;20683;-78
2021/08/21 04:55:53;;;;;;;54.43;32.50;;;;;;;16.85;75.21;101964.75;5083790;28;20257;-77
2021/08/21 04:58:20;;;;;;;48.23;29.33;;;;;;;16.94;74.84;101955.22;5080263;28;20270;-78
2021/08/21 05:00:46;;;;;;;45.73;28.83;;;;;;;16.94;75.32;101970.63;5085248;28;20703;-78
2021/08/21 05:03:13;;;;;;;45.17;29.00;;;;;;;16.86;75.63;101974.50;5085261;28;20250;-77
2021/08/21 05:05:39;;;;;;;43.23;27.73;;;;;;;17.06;75.38;101963.31;5084239;28;20201;-77
2021/08/21 05:08:06;;;;;;;58.43;33.53;;;;;;;16.48;76.71;101970.38;5082414;28;20797;-77
2021/08/21 05:10:34;;;;;;;54.60;33.47;;;;;;;16.67;77.00;101972.97;5084436;28;20228;-79
2021/08/21 05:13:00;;;;;;;46.43;29.40;;;;;;;16.87;75.63;101970.72;5086310;28;20205;-78
2021/08/21 05:15:27;;;;;;;62.80;35.57;;;;;;;17.00;76.78;101959.66;5081736;28;20840;-78
2021/08/21 05:17:55;;;;;;;70.50;37.60;;;;;;;17.04;76.22;101960.84;5082672;28;20230;-77
2021/08/21 05:20:28;;;;;;;63.40;34.87;;;;;;;16.89;77.27;101971.31;5082182;28;20282;-77
2021/08/21 05:23:06;;;;;;;61.97;35.87;;;;;;;16.96;77.06;101968.50;5081557;28;20577;-78
2021/08/21 05:25:39;;;;;;;60.33;35.63;;;;;;;17.01;77.77;101960.50;5083508;28;20343;-77
2021/08/21 05:28:06;;;;;;;66.90;37.80;;;;;;;17.04;77.54;101976.22;5080022;28;20274;-79
2021/08/21 05:30:33;;;;;;;54.27;34.03;;;;;;;17.05;77.67;101973.28;5086380;28;20294;-80
2021/08/21 05:33:00;;;;;;;64.97;37.73;;;;;;;17.15;77.48;101966.44;5085663;28;20214;-79
2021/08/21 05:35:26;;;;;;;57.03;36.33;;;;;;;17.30;77.59;101975.69;5088711;28;20210;-80
2021/08/21 05:37:53;;;;;;;56.70;35.97;;;;;;;17.43;76.91;101973.78;5085549;28;21091;-79
2021/08/21 05:40:19;;;;;;;56.13;36.63;;;;;;;17.53;76.05;101969.38;5087348;28;20242;-80
2021/08/21 05:42:47;;;;;;;65.40;37.47;;;;;;;17.34;76.21;101963.34;5086091;28;20216;-79
2021/08/21 05:45:13;;;;;;;76.53;41.77;;;;;;;17.41;77.11;101962.38;5087872;28;20218;-80
2021/08/21 05:47:40;;;;;;;66.93;40.60;;;;;;;17.47;76.98;101966.81;5087067;28;20221;-80
2021/08/21 05:50:07;;;;;;;69.50;41.27;;;;;;;17.75;76.79;101964.13;5087138;28;20245;-80
2021/08/21 05:52:34;;;;;;;62.83;39.87;;;;;;;17.86;75.67;101963.25;5087986;28;20224;-80
2021/08/21 05:55:00;;;;;;;67.67;42.47;;;;;;;17.72;77.17;101964.63;5084770;28;20281;-78
2021/08/21 05:57:26;;;;;;;81.07;45.47;;;;;;;17.76;77.00;101973.06;5083959;28;20243;-80
2021/08/21 05:59:54;;;;;;;89.10;47.93;;;;;;;17.83;77.99;101966.44;5088083;28;20269;-80
2021/08/21 06:02:21;;;;;;;74.60;44.50;;;;;;;17.94;77.39;101973.66;5093263;28;20216;-80
2021/08/21 06:04:47;;;;;;;82.90;47.50;;;;;;;18.13;76.59;101968.84;5089965;28;20219;-80
2021/08/21 06:07:14;;;;;;;81.70;48.27;;;;;;;18.26;76.29;101967.69;5088238;28;20241;-80
2021/08/21 06:09:40;;;;;;;75.13;45.60;;;;;;;18.37;75.65;101974.06;5092044;28;20335;-80
2021/08/21 06:12:07;;;;;;;79.33;47.50;;;;;;;18.46;75.23;101973.41;5093954;28;20265;-80
2021/08/21 06:14:37;;;;;;;73.33;44.97;;;;;;;18.36;76.09;101970.56;5087766;28;20285;-78
2021/08/21 06:17:06;;;;;;;69.37;45.13;;;;;;;18.18;77.00;101973.53;5091870;28;20259;-79
2021/08/21 06:19:32;;;;;;;74.13;46.20;;;;;;;18.44;76.18;101972.03;5094252;28;20212;-80
2021/08/21 06:21:59;;;;;;;79.10;48.33;;;;;;;18.50;77.01;101973.75;5091142;28;20216;-80
2021/08/21 06:24:25;;;;;;;71.20;45.50;;;;;;;18.81;75.17;101977.75;5090004;28;20324;-80
2021/08/21 06:26:52;;;;;;;74.80;46.10;;;;;;;18.50;76.88;101979.97;5089972;28;20215;-80
2021/08/21 06:29:18;;;;;;;73.03;45.80;;;;;;;18.36;77.19;101992.19;5092399;28;20233;-80
2021/08/21 06:31:44;;;;;;;68.83;43.23;;;;;;;18.42;77.49;101984.97;5091480;28;20216;-80
2021/08/21 06:34:12;;;;;;;75.20;47.10;;;;;;;18.64;76.24;101988.59;5092797;28;20645;-80
2021/08/21 06:36:39;;;;;;;67.73;43.53;;;;;;;18.68;77.23;101997.06;5088860;28;20220;-80
2021/08/21 06:39:05;;;;;;;80.40;47.80;;;;;;;19.06;76.63;101994.34;5088601;28;20228;-80
2021/08/21 06:41:32;;;;;;;78.93;47.40;;;;;;;19.02;74.75;101995.88;5091931;28;20216;-81
2021/08/21 06:43:58;;;;;;;68.23;44.10;;;;;;;19.03;76.04;101989.41;5088217;28;20217;-80
2021/08/21 06:46:24;;;;;;;67.97;46.03;;;;;;;18.99;75.71;101992.88;5088564;28;20212;-80
2021/08/21 06:48:51;;;;;;;67.93;44.87;;;;;;;19.14;75.13;101998.47;5087884;28;20255;-80
2021/08/21 06:51:19;;;;;;;70.20;46.70;;;;;;;19.07;75.00;101992.44;5091633;28;20243;-81
2021/08/21 06:53:45;;;;;;;73.57;46.57;;;;;;;18.76;76.84;101999.31;5087914;28;20221;-80
2021/08/21 06:56:12;;;;;;;62.43;44.20;;;;;;;19.05;76.75;102000.78;5089060;28;20240;-80
2021/08/21 06:58:38;;;;;;;59.50;42.83;;;;;;;19.08;75.67;102000.31;5089321;28;20356;-80
2021/08/21 07:01:05;;;;;;;55.53;41.50;;;;;;;19.53;74.87;102001.91;5092004;28;20212;-80
2021/08/21 07:03:31;;;;;;;54.87;40.23;;;;;;;19.49;75.35;101994.56;5091131;28;20210;-80
2021/08/21 07:05:57;;;;;;;58.23;42.83;;;;;;;19.82;73.93;102004.41;5088908;28;20266;-80
2021/08/21 07:08:25;;;;;;;59.83;43.27;;;;;;;19.82;72.85;102004.41;5091239;28;20290;-80
2021/08/21 07:10:52;;;;;;;54.27;40.57;;;;;;;19.80;74.24;102004.66;5091101;28;20286;-80
2021/08/21 07:13:18;;;;;;;53.50;41.80;;;;;;;20.17;73.07;102007.47;5088225;28;20660;-80
2021/08/21 07:15:45;;;;;;;53.23;41.33;;;;;;;20.28;70.49;102008.38;5092431;28;20228;-81
2021/08/21 07:18:11;;;;;;;51.33;40.57;;;;;;;20.23;71.97;102013.75;5088228;28;20261;-80
2021/08/21 07:20:37;;;;;;;52.43;40.90;;;;;;;20.23;72.02;102013.75;5090652;28;20726;-81
2021/08/21 07:23:04;;;;;;;50.40;38.77;;;;;;;20.77;71.15;102006.31;5091516;28;20239;-81
2021/08/21 07:25:32;;;;;;;41.17;36.27;;;;;;;21.46;69.76;102018.88;5087586;28;20723;-81
2021/08/21 07:27:58;;;;;;;43.47;36.00;;;;;;;20.75;69.28;102019.34;5087363;28;20221;-81
2021/08/21 07:30:25;;;;;;;44.63;38.57;;;;;;;20.88;69.20;102014.53;5089689;28;20240;-81
2021/08/21 07:32:52;;;;;;;43.27;37.10;;;;;;;20.72;70.87;102019.06;5091880;28;20640;-81
2021/08/21 07:35:18;;;;;;;41.10;36.33;;;;;;;20.88;70.80;102011.81;5089011;28;20232;-81
2021/08/21 07:37:44;;;;;;;46.07;38.57;;;;;;;20.97;70.14;102011.03;5092600;28;20289;-81
2021/08/21 07:40:12;;;;;;;43.67;36.10;;;;;;;21.28;68.04;102013.91;5090280;28;20205;-81
2021/08/21 07:42:40;;;;;;;41.17;35.97;;;;;;;21.13;68.08;102010.03;5090800;28;21035;-81
2021/08/21 07:45:07;;;;;;;41.20;34.97;;;;;;;21.10;70.63;102002.41;5091952;28;20211;-81
2021/08/21 07:47:34;;;;;;;37.60;33.60;;;;;;;21.69;67.95;102003.97;5088233;28;20213;-81
2021/08/21 07:50:00;;;;;;;40.00;35.70;;;;;;;21.77;68.87;102008.91;5090691;28;20241;-81
2021/08/21 07:52:27;;;;;;;38.80;34.80;;;;;;;21.22;67.26;102009.53;5092244;28;20209;-81
2021/08/21 07:54:56;;;;;;;37.43;33.60;;;;;;;21.42;65.79;102010.44;5093165;28;20239;-82
2021/08/21 07:57:22;;;;;;;35.13;31.43;;;;;;;21.58;66.75;102007.75;5090662;28;20668;-81
2021/08/21 07:59:50;;;;;;;36.67;32.33;;;;;;;22.08;66.25;102004.31;5088879;28;20225;-81
2021/08/21 08:02:16;;;;;;;32.43;29.13;;;;;;;22.49;64.85;102002.41;5091760;28;20224;-81
2021/08/21 08:04:43;;;;;;;34.17;30.70;;;;;;;22.69;64.03;102003.47;5089772;28;20217;-82
2021/08/21 08:07:09;;;;;;;32.13;29.00;;;;;;;23.05;65.92;101999.56;5091603;28;20229;-82
2021/08/21 08:09:35;;;;;;;30.73;27.80;;;;;;;23.72;62.47;102000.06;5092905;28;20238;-82
2021/08/21 08:12:02;;;;;;;32.60;29.27;;;;;;;23.52;61.44;102001.00;5090799;28;20576;-82
2021/08/21 08:14:29;;;;;;;32.73;29.30;;;;;;;23.72;60.28;102003.63;5093957;28;20247;-82
2021/08/21 08:16:57;;;;;;;31.53;28.07;;;;;;;23.42;62.29;101996.41;5091759;28;20321;-82
2021/08/21 08:19:24;;;;;;;34.53;30.93;;;;;;;22.98;63.42;102000.94;5096618;28;20281;-82
2021/08/21 08:21:50;;;;;;;36.57;32.97;;;;;;;22.94;61.88;102002.63;5089535;28;20226;-82
2021/08/21 08:24:19;;;;;;;35.07;31.27;;;;;;;22.58;63.31;102000.75;5090616;28;20239;-82
2021/08/21 08:26:45;;;;;;;35.93;32.20;;;;;;;22.06;65.21;102005.69;5089016;28;20221;-82
2021/08/21 08:29:12;;;;;;;34.03;30.53;;;;;;;22.91;64.77;102006.72;5091945;28;20219;-83
2021/08/21 08:31:38;;;;;;;30.53;27.47;;;;;;;23.40;61.06;101998.59;5091781;28;20240;-83
2021/08/21 08:34:06;;;;;;;31.03;27.73;;;;;;;23.72;62.01;102009.06;5091920;28;20226;-83
2021/08/21 08:36:32;;;;;;;30.77;27.47;;;;;;;23.14;62.59;102011.53;5093008;28;20221;-83
2021/08/21 08:38:59;;;;;;;32.20;27.47;;;;;;;22.73;62.44;102015.44;5091214;28;20288;-83
2021/08/21 08:41:26;;;;;;;30.90;27.27;;;;;;;22.25;64.29;102021.22;5092144;28;20207;-83
2021/08/21 08:43:52;;;;;;;30.93;27.30;;;;;;;22.43;65.77;102016.31;5092261;28;20303;-83
2021/08/21 08:46:19;;;;;;;33.20;29.57;;;;;;;22.35;64.26;102016.84;5091799;28;20240;-83
2021/08/21 08:48:46;;;;;;;34.47;30.13;;;;;;;22.36;63.79;102016.59;5091259;28;20263;-83
2021/08/21 08:51:14;;;;;;;32.70;28.30;;;;;;;21.92;64.16;102027.97;5091292;28;20229;-83
2021/08/21 08:53:41;;;;;;;34.80;28.47;;;;;;;21.76;67.32;102018.16;5090351;28;20302;-82
2021/08/21 08:56:07;;;;;;;31.87;27.50;;;;;;;21.43;67.06;102020.22;5090987;28;20262;-83
2021/08/21 08:58:34;;;;;;;32.83;28.87;;;;;;;22.07;66.93;102029.09;5087358;28;20209;-83
2021/08/21 09:01:00;;;;;;;32.13;28.63;;;;;;;21.78;67.25;102026.03;5089595;28;20212;-83
2021/08/21 09:03:28;;;;;;;32.53;28.80;;;;;;;22.22;65.94;102032.63;5090874;28;20656;-83
2021/08/21 09:05:56;;;;;;;31.97;28.57;;;;;;;22.08;65.12;102026.09;5088226;28;20239;-83
2021/08/21 09:08:26;;;;;;;29.47;26.33;;;;;;;22.15;64.20;102028.56;5091584;28;20231;-83
2021/08/21 09:10:53;;;;;;;30.90;27.73;;;;;;;22.51;64.21;102024.75;5092525;28;20877;-83
2021/08/21 09:13:20;;;;;;;27.30;24.40;;;;;;;22.87;63.99;102019.28;5092448;28;20305;-83
2021/08/21 09:15:48;;;;;;;25.93;23.30;;;;;;;23.19;60.49;102021.59;5088345;28;20231;-82
2021/08/21 09:18:17;;;;;;;25.77;23.17;;;;;;;22.99;61.75;102018.94;5088191;28;20294;-83
2021/08/21 09:20:58;;;;;;;28.77;25.30;;;;;;;23.06;60.94;102019.47;5091348;28;20583;-82
2021/08/21 09:23:31;;;;;;;2.30;2.10;;;;;;;22.95;61.78;102017.88;5089323;28;20221;-82
2021/08/21 09:26:06;;;;;;;4.07;2.20;;;;;;;22.54;62.68;102015.22;5089408;28;20205;-82
2021/08/21 09:28:34;;;;;;;3.43;2.50;;;;;;;22.74;61.46;102017.06;5087085;28;20201;-82
2021/08/21 09:31:02;;;;;;;3.80;3.40;;;;;;;22.73;61.62;102016.25;5087841;28;20244;-82
2021/08/21 09:33:29;;;;;;;3.47;3.17;;;;;;;22.97;61.93;102021.94;5088818;28;20213;-82
2021/08/21 09:35:56;;;;;;;1.70;1.60;;;;;;;23.09;62.14;102018.91;5088510;28;20721;-82
2021/08/21 09:38:23;;;;;;;8.83;6.00;;;;;;;22.78;60.39;102023.63;5087055;28;20225;-79
2021/08/21 09:40:58;;;;;;;1.90;1.60;;;;;;;22.96;59.95;102011.31;5086683;28;20218;-81
2021/08/21 09:43:31;;;;;;;3.60;1.23;;;;;;;22.75;59.85;102011.38;5086710;28;20209;-80
2021/08/21 09:46:11;;;;;;;6.40;4.53;;;;;;;23.00;59.74;102018.69;5088912;28;20660;-82
2021/08/21 09:48:56;;;;;;;4.67;1.10;;;;;;;23.68;57.14;102008.03;5089946;28;20300;-83
2021/08/21 09:51:44;;;;;;;0.33;0.33;;;;;;;23.66;58.10;102015.69;5090154;28;20222;-84
2021/08/21 09:54:13;;;;;;;1.20;1.20;;;;;;;24.20;56.33;102011.19;5087696;28;20230;-85
2021/08/21 09:56:42;;;;;;;4.83;2.10;;;;;;;24.72;53.67;102009.63;5090654;28;20223;-85
2021/08/21 09:59:09;;;;;;;1.13;1.03;;;;;;;24.75;55.70;102009.84;5096324;28;20682;-86
2021/08/21 10:01:36;;;;;;;0.30;0.30;;;;;;;24.72;52.81;102012.38;5090329;28;20314;-86
2021/08/21 10:04:03;;;;;;;0.67;0.67;;;;;;;24.81;51.77;101999.69;5095727;28;20678;-84
2021/08/21 10:06:30;;;;;;;0.40;0.40;;;;;;;24.46;53.06;102000.88;5091543;28;20828;-85
2021/08/21 10:09:00;;;;;;;0.40;0.40;;;;;;;24.92;53.99;101995.75;5095492;28;20228;-86
2021/08/21 10:11:27;;;;;;;0.70;0.70;;;;;;;24.12;55.17;102006.34;5093372;28;20254;-86
2021/08/21 10:13:55;;;;;;;1.47;1.20;;;;;;;24.81;51.04;102003.25;5090839;28;20239;-83
2021/08/21 10:16:22;;;;;;;3.03;1.50;;;;;;;24.51;54.71;102006.28;5093241;28;20227;-85
2021/08/21 10:18:49;;;;;;;0.30;0.30;;;;;;;24.51;53.11;102007.09;5097576;28;20693;-85
2021/08/21 10:21:17;;;;;;;0.70;0.67;;;;;;;24.41;53.31;101995.47;5099325;28;20219;-85
2021/08/21 10:23:44;;;;;;;3.30;2.30;;;;;;;24.73;51.39;102003.88;5095867;28;20234;-85
2021/08/21 10:26:17;;;;;;;2.10;2.00;;;;;;;24.47;53.78;102002.50;5095513;28;20231;-86
2021/08/21 10:28:44;;;;;;;0.60;0.60;;;;;;;25.33;52.13;101998.81;5095647;28;20220;-86
2021/08/21 10:31:35;;;;;;;0.30;0.30;;;;;;;25.68;51.80;102000.25;5090405;28;20232;-77
2021/08/21 10:34:01;;;;;;;6.50;3.33;;;;;;;24.57;51.86;102005.97;5081554;28;20273;-77
2021/08/21 10:36:48;;;;;;;5.30;1.00;;;;;;;24.95;55.20;102006.09;5081652;28;20922;-77
2021/08/21 10:39:20;;;;;;;2.00;1.80;;;;;;;24.99;51.75;101998.13;5079806;28;20236;-76
2021/08/21 10:41:46;;;;;;;0.50;0.50;;;;;;;24.64;53.29;102000.94;5080601;28;20207;-77
2021/08/21 10:44:39;;;;;;;0.77;0.77;;;;;;;25.57;51.69;101995.22;5082843;28;20217;-77
2021/08/21 10:47:07;;;;;;;0.30;0.30;;;;;;;25.44;50.92;101999.50;5084728;28;20635;-77
2021/08/21 10:49:45;;;;;;;0.30;0.30;;;;;;;25.42;51.53;101993.50;5084083;28;20211;-77
2021/08/21 10:52:46;;;;;;;1.60;1.30;;;;;;;24.84;54.99;101993.66;5083561;28;20219;-77
2021/08/21 10:55:14;;;;;;;0.27;0.27;;;;;;;26.45;52.93;101990.81;5085789;28;20629;-77
2021/08/21 10:57:55;;;;;;;2.13;1.97;;;;;;;25.92;50.75;101985.63;5083552;28;20254;-77
2021/08/21 11:00:53;;;;;;;1.07;0.97;;;;;;;25.55;53.62;101995.50;5083623;28;20286;-77
2021/08/21 11:03:42;;;;;;;16.13;11.90;;;;;;;24.94;51.46;101988.88;5086252;28;20318;-77
2021/08/21 11:06:10;;;;;;;12.80;10.97;;;;;;;25.36;54.29;101979.06;5082360;28;20216;-77
2021/08/21 11:09:05;;;;;;;13.27;12.00;;;;;;;25.72;49.98;101981.31;5086038;28;20224;-77
2021/08/21 11:11:35;;;;;;;11.70;9.97;;;;;;;26.81;50.20;101985.47;5082542;28;21315;-77
2021/08/21 11:14:04;;;;;;;14.63;12.20;;;;;;;25.94;48.86;101976.03;5081467;28;20240;-77